PADU

Details ICAO PADU (DUT)
Name UNALASKA
Region USA (Alaska)
Timezone America/Adak (UTC-9.0)
Plans Departing 29
Arriving 33
Stats Elevation 22 ft / 7 m (AMSL)
Location 53.899070° -166.545064°
Runways 1
Magnetic Variation 9.261° E
Sunrise 2017-04-24 15:44:55 UTC / 2017-04-24 06:44:55 Local
Sunset 2017-04-25 06:25:47 UTC / 2017-04-24 21:25:47 Local
Advertisement - Login to hide

Runways

ID Width Length Bearing (true) Bearing (mag) Surface Threshold Offset Overrun Length
12 100 ft / 30 m 3,895 ft / 1,187 m 135.64° 126.38° Asphalt 100 ft / 30 m 0 ft / 0 m
30 100 ft / 30 m 3,895 ft / 1,187 m 315.65° 306.39° Asphalt 101 ft / 31 m 0 ft / 0 m

Map

Weather

Temperature
Clouds and Precipitation
Forecast for 2017-04-25 06:00 UTC. Updated an hour ago
Winds

METAR

PADU 250356Z AUTO 12009KT 10SM FEW036 06/00 A2917

TAF

TAF AMD PADU 250336Z 2504/2524 14008KT P6SM FEW025 BKN035 FM250800 13006KT P6SM -RA SCT012 BKN025 FM252100 13007KT P6SM VCSH BKN025

Frequencies

Recorded 125.80 MHz AWOS 3
Unicom 122.60 MHz CTAF
Warning: Do not use this data for real-world aviation or navigation. No guarantee of current accuracy is given.